Farragut, Iowa
Current Conditions -  °F | °C
As of 8:35 AM on Sunday 23 Nov 2014 (Local Time) from KSDA Reporting Station
Haze Haze  
Wind Chill: 54°   Ceiling: 600
Heat Index: 54°   Visibility: 1.5mi
Dew Point: 54°   Wind: 7mph
Humidity: 100%   Direction: 180°S
Pressure: 29.5"   Gusts: NA
Location:  40.72°N, 95.48°W
Report Text: KSDA 231435Z AUTO 18006KT 1 1/2SM BR BKN006 BKN023 OVC028 12/12 A2950 RMK AO2
Loading
Personal Weather Stations






























Interactive Weather Map New forecast layout! Learn more

10-Day Weather Forecast

Advertisements
Track Severe Weather on mobile